LELC

San Javier Airport

San Javier, Spain
TAF LELC 210500Z 2106/2206 34005KT CAVOK TX32/2114Z TN22/2206Z BECMG 2108/2110 09010KT BECMG 2119/2121 32006KT
Issued Valid From Valid To
Aug-21 @ 05:00 UTC
(13 hours ago)
Aug-21 @ 06:00 UTC
(12 hours ago)
Aug-22 @ 06:00 UTC
(in 12 hours)
Expired Click to View Aug-21 @ 06:00 to Aug-21 @ 08:00
TAF LELC 210500Z 2106/2206 34005KT CAVOK TX32/2114Z TN22/2206Z
Wind Visibility Clouds
340° at 5 knots 10,000+ meters
  • No significant clouds
Becoming Aug-21 @ 08:00 to Aug-21 @ 19:00
BECMG 2108/2110 09010KT
Wind Visibility Clouds
90° at 10 knots 10,000+ meters
  • No significant clouds
Becoming Aug-21 @ 19:00 to Aug-22 @ 06:00
BECMG 2119/2121 32006KT
Wind Visibility Clouds
320° at 6 knots 10,000+ meters
  • No significant clouds
TAF LELC 210500Z 2106/2206 34005KT CAVOK TX32/2114Z TN22/2206Z BECMG 2108/2110 09010KT BECMG 2119/2121 32006KT
Issued Aug-21 @ 05:00 UTC
(13 hours ago)
Valid From Aug-21 @ 06:00 UTC
(12 hours ago)
Valid To Aug-22 @ 06:00 UTC
(in 12 hours)
Aug-21 @ 06:00 - Aug-21 @ 08:00
Wind Visibility
340° at 5 knots 10,000+ meters
Clouds
  • No significant clouds
Becoming Aug-21 @ 08:00 - Aug-21 @ 19:00
Wind Visibility
90° at 10 knots 10,000+ meters
Clouds
  • No significant clouds
Becoming Aug-21 @ 19:00 - Aug-22 @ 06:00
Wind Visibility
320° at 6 knots 10,000+ meters
Clouds
  • No significant clouds